sensor_id;sensor_type;location;lat;lon;timestamp;temperature;humidity
59469;DHT22;45277;52.768;18.262;2022-08-19T00:01:31;18.60;99.90
59469;DHT22;45277;52.768;18.262;2022-08-19T00:03:09;18.60;99.90
59469;DHT22;45277;52.768;18.262;2022-08-19T00:04:41;18.60;99.90
59469;DHT22;45277;52.768;18.262;2022-08-19T00:06:13;18.60;99.90
59469;DHT22;45277;52.768;18.262;2022-08-19T00:07:45;18.50;99.90
59469;DHT22;45277;52.768;18.262;2022-08-19T00:09:19;18.50;99.90
59469;DHT22;45277;52.768;18.262;2022-08-19T00:10:51;18.50;99.90
59469;DHT22;45277;52.768;18.262;2022-08-19T00:12:24;18.50;99.90
59469;DHT22;45277;52.768;18.262;2022-08-19T00:13:56;18.50;99.90
59469;DHT22;45277;52.768;18.262;2022-08-19T00:15:29;18.40;99.90
59469;DHT22;45277;52.768;18.262;2022-08-19T00:17:01;18.40;99.90
59469;DHT22;45277;52.768;18.262;2022-08-19T00:18:40;18.40;99.90
59469;DHT22;45277;52.768;18.262;2022-08-19T00:20:15;18.40;99.90
59469;DHT22;45277;52.768;18.262;2022-08-19T00:21:48;18.30;99.90
59469;DHT22;45277;52.768;18.262;2022-08-19T00:23:21;18.30;99.90
59469;DHT22;45277;52.768;18.262;2022-08-19T00:24:54;18.30;99.90
59469;DHT22;45277;52.768;18.262;2022-08-19T00:26:27;18.30;99.90
59469;DHT22;45277;52.768;18.262;2022-08-19T00:28:00;18.30;99.90
59469;DHT22;45277;52.768;18.262;2022-08-19T00:29:34;18.30;99.90
59469;DHT22;45277;52.768;18.262;2022-08-19T00:31:07;18.30;99.90
59469;DHT22;45277;52.768;18.262;2022-08-19T00:32:41;18.30;99.90
59469;DHT22;45277;52.768;18.262;2022-08-19T00:34:13;18.30;99.90
59469;DHT22;45277;52.768;18.262;2022-08-19T00:35:45;18.30;99.90
59469;DHT22;45277;52.768;18.262;2022-08-19T00:37:18;18.30;99.90
59469;DHT22;45277;52.768;18.262;2022-08-19T00:38:50;18.30;99.90
59469;DHT22;45277;52.768;18.262;2022-08-19T00:40:22;18.20;99.90
59469;DHT22;45277;52.768;18.262;2022-08-19T00:42:02;18.30;99.90
59469;DHT22;45277;52.768;18.262;2022-08-19T00:43:34;18.20;99.90
59469;DHT22;45277;52.768;18.262;2022-08-19T00:45:17;18.20;99.90
59469;DHT22;45277;52.768;18.262;2022-08-19T00:46:50;18.20;99.90
59469;DHT22;45277;52.768;18.262;2022-08-19T00:48:23;18.20;99.90
59469;DHT22;45277;52.768;18.262;2022-08-19T00:49:57;18.20;99.90
59469;DHT22;45277;52.768;18.262;2022-08-19T00:51:40;18.20;99.90
59469;DHT22;45277;52.768;18.262;2022-08-19T00:53:15;18.20;99.90
59469;DHT22;45277;52.768;18.262;2022-08-19T00:54:49;18.20;99.90
59469;DHT22;45277;52.768;18.262;2022-08-19T00:56:20;18.20;99.90
59469;DHT22;45277;52.768;18.262;2022-08-19T00:58:02;18.20;99.90
59469;DHT22;45277;52.768;18.262;2022-08-19T00:59:35;18.20;99.90
59469;DHT22;45277;52.768;18.262;2022-08-19T01:01:13;18.20;99.90
59469;DHT22;45277;52.768;18.262;2022-08-19T01:02:46;18.20;99.90
59469;DHT22;45277;52.768;18.262;2022-08-19T01:04:19;18.10;99.90
59469;DHT22;45277;52.768;18.262;2022-08-19T01:05:52;18.10;99.90
59469;DHT22;45277;52.768;18.262;2022-08-19T01:07:25;18.10;99.90
59469;DHT22;45277;52.768;18.262;2022-08-19T01:08:56;18.10;99.90
59469;DHT22;45277;52.768;18.262;2022-08-19T01:10:32;18.10;99.90
59469;DHT22;45277;52.768;18.262;2022-08-19T01:12:13;18.10;99.90
59469;DHT22;45277;52.768;18.262;2022-08-19T01:13:45;18.10;99.90
59469;DHT22;45277;52.768;18.262;2022-08-19T01:15:20;18.10;99.90
59469;DHT22;45277;52.768;18.262;2022-08-19T01:16:55;18.10;99.90
59469;DHT22;45277;52.768;18.262;2022-08-19T01:18:39;18.10;99.90
59469;DHT22;45277;52.768;18.262;2022-08-19T01:20:16;18.00;99.90
59469;DHT22;45277;52.768;18.262;2022-08-19T01:21:55;18.00;99.90
59469;DHT22;45277;52.768;18.262;2022-08-19T01:23:29;18.00;99.90
59469;DHT22;45277;52.768;18.262;2022-08-19T01:25:31;18.00;99.90
59469;DHT22;45277;52.768;18.262;2022-08-19T01:27:07;18.00;99.90
59469;DHT22;45277;52.768;18.262;2022-08-19T01:28:47;18.00;99.90
59469;DHT22;45277;52.768;18.262;2022-08-19T01:30:29;18.00;99.90
59469;DHT22;45277;52.768;18.262;2022-08-19T01:32:03;18.00;99.90
59469;DHT22;45277;52.768;18.262;2022-08-19T01:33:35;17.90;99.90
59469;DHT22;45277;52.768;18.262;2022-08-19T01:35:09;17.90;99.90
59469;DHT22;45277;52.768;18.262;2022-08-19T01:36:53;17.90;99.90
59469;DHT22;45277;52.768;18.262;2022-08-19T01:38:26;17.90;99.90
59469;DHT22;45277;52.768;18.262;2022-08-19T01:40:11;17.90;99.90
59469;DHT22;45277;52.768;18.262;2022-08-19T01:41:51;17.90;99.90
59469;DHT22;45277;52.768;18.262;2022-08-19T01:43:25;17.90;99.90
59469;DHT22;45277;52.768;18.262;2022-08-19T01:44:57;18.00;99.90
59469;DHT22;45277;52.768;18.262;2022-08-19T01:46:29;18.00;99.90
59469;DHT22;45277;52.768;18.262;2022-08-19T01:48:04;18.00;99.90
59469;DHT22;45277;52.768;18.262;2022-08-19T01:49:44;18.00;99.90
59469;DHT22;45277;52.768;18.262;2022-08-19T01:51:17;18.00;99.90
59469;DHT22;45277;52.768;18.262;2022-08-19T01:52:49;18.00;99.90
59469;DHT22;45277;52.768;18.262;2022-08-19T01:54:24;18.00;99.90
59469;DHT22;45277;52.768;18.262;2022-08-19T01:55:56;18.00;99.90
59469;DHT22;45277;52.768;18.262;2022-08-19T01:57:37;18.00;99.90
59469;DHT22;45277;52.768;18.262;2022-08-19T01:59:12;18.00;99.90
59469;DHT22;45277;52.768;18.262;2022-08-19T02:00:45;18.00;99.90
59469;DHT22;45277;52.768;18.262;2022-08-19T02:02:23;18.00;99.90
59469;DHT22;45277;52.768;18.262;2022-08-19T02:03:54;18.00;99.90
59469;DHT22;45277;52.768;18.262;2022-08-19T02:05:27;18.10;99.90
59469;DHT22;45277;52.768;18.262;2022-08-19T02:07:01;18.10;99.90
59469;DHT22;45277;52.768;18.262;2022-08-19T02:08:46;18.10;99.90
59469;DHT22;45277;52.768;18.262;2022-08-19T02:10:21;18.10;99.90
59469;DHT22;45277;52.768;18.262;2022-08-19T02:11:53;18.10;99.90
59469;DHT22;45277;52.768;18.262;2022-08-19T02:13:27;18.10;99.90
59469;DHT22;45277;52.768;18.262;2022-08-19T02:15:00;18.10;99.90
59469;DHT22;45277;52.768;18.262;2022-08-19T02:16:35;18.10;99.90
59469;DHT22;45277;52.768;18.262;2022-08-19T02:19:47;18.00;99.90
59469;DHT22;45277;52.768;18.262;2022-08-19T02:21:21;18.00;99.90
59469;DHT22;45277;52.768;18.262;2022-08-19T02:22:53;18.00;99.90
59469;DHT22;45277;52.768;18.262;2022-08-19T02:24:26;18.10;99.90
59469;DHT22;45277;52.768;18.262;2022-08-19T02:25:59;18.10;99.90
59469;DHT22;45277;52.768;18.262;2022-08-19T02:27:32;18.10;99.90
59469;DHT22;45277;52.768;18.262;2022-08-19T02:29:06;18.10;99.90
59469;DHT22;45277;52.768;18.262;2022-08-19T02:30:40;18.10;99.90
59469;DHT22;45277;52.768;18.262;2022-08-19T02:32:15;18.10;99.90
59469;DHT22;45277;52.768;18.262;2022-08-19T02:33:48;18.20;99.90
59469;DHT22;45277;52.768;18.262;2022-08-19T02:35:25;18.30;99.90
59469;DHT22;45277;52.768;18.262;2022-08-19T02:36:57;18.30;99.90
59469;DHT22;45277;52.768;18.262;2022-08-19T02:38:35;18.30;99.90
59469;DHT22;45277;52.768;18.262;2022-08-19T02:40:09;18.30;99.90
59469;DHT22;45277;52.768;18.262;2022-08-19T02:41:40;18.30;99.90
59469;DHT22;45277;52.768;18.262;2022-08-19T02:43:19;18.40;99.90
59469;DHT22;45277;52.768;18.262;2022-08-19T02:44:52;18.40;99.90
59469;DHT22;45277;52.768;18.262;2022-08-19T02:46:30;18.40;99.90
59469;DHT22;45277;52.768;18.262;2022-08-19T02:48:04;18.40;99.90
59469;DHT22;45277;52.768;18.262;2022-08-19T02:49:38;18.40;99.90
59469;DHT22;45277;52.768;18.262;2022-08-19T02:51:19;18.50;99.90
59469;DHT22;45277;52.768;18.262;2022-08-19T02:52:51;18.50;99.90
59469;DHT22;45277;52.768;18.262;2022-08-19T02:54:29;18.50;99.90
59469;DHT22;45277;52.768;18.262;2022-08-19T02:56:00;18.50;99.90
59469;DHT22;45277;52.768;18.262;2022-08-19T02:57:33;18.50;99.90
59469;DHT22;45277;52.768;18.262;2022-08-19T02:59:06;18.50;99.90
59469;DHT22;45277;52.768;18.262;2022-08-19T03:00:47;18.50;99.90
59469;DHT22;45277;52.768;18.262;2022-08-19T03:02:20;18.50;99.90
59469;DHT22;45277;52.768;18.262;2022-08-19T03:03:53;18.50;99.90
59469;DHT22;45277;52.768;18.262;2022-08-19T03:05:26;18.50;99.90
59469;DHT22;45277;52.768;18.262;2022-08-19T03:07:00;18.40;99.90
59469;DHT22;45277;52.768;18.262;2022-08-19T03:08:38;18.40;99.90
59469;DHT22;45277;52.768;18.262;2022-08-19T03:10:10;18.40;99.90
59469;DHT22;45277;52.768;18.262;2022-08-19T03:11:53;18.40;99.90
59469;DHT22;45277;52.768;18.262;2022-08-19T03:13:26;18.40;99.90
59469;DHT22;45277;52.768;18.262;2022-08-19T03:14:59;18.30;99.90
59469;DHT22;45277;52.768;18.262;2022-08-19T03:16:43;18.30;99.90
59469;DHT22;45277;52.768;18.262;2022-08-19T03:18:24;18.30;99.90
59469;DHT22;45277;52.768;18.262;2022-08-19T03:19:55;18.20;99.90
59469;DHT22;45277;52.768;18.262;2022-08-19T03:21:30;18.30;99.90
59469;DHT22;45277;52.768;18.262;2022-08-19T03:23:02;18.30;99.90
59469;DHT22;45277;52.768;18.262;2022-08-19T03:24:34;18.30;99.90
59469;DHT22;45277;52.768;18.262;2022-08-19T03:26:07;18.30;99.90
59469;DHT22;45277;52.768;18.262;2022-08-19T03:27:39;18.20;99.90
59469;DHT22;45277;52.768;18.262;2022-08-19T03:29:11;18.20;99.90
59469;DHT22;45277;52.768;18.262;2022-08-19T03:30:58;18.20;99.90
59469;DHT22;45277;52.768;18.262;2022-08-19T03:32:36;18.20;99.90
59469;DHT22;45277;52.768;18.262;2022-08-19T03:34:08;18.10;99.90
59469;DHT22;45277;52.768;18.262;2022-08-19T03:35:39;18.20;99.90
59469;DHT22;45277;52.768;18.262;2022-08-19T03:37:12;18.10;99.90
59469;DHT22;45277;52.768;18.262;2022-08-19T03:38:50;18.20;99.90
59469;DHT22;45277;52.768;18.262;2022-08-19T03:40:22;18.20;99.90
59469;DHT22;45277;52.768;18.262;2022-08-19T03:42:01;18.20;99.90
59469;DHT22;45277;52.768;18.262;2022-08-19T03:43:37;18.20;99.90
59469;DHT22;45277;52.768;18.262;2022-08-19T03:45:09;18.20;99.90
59469;DHT22;45277;52.768;18.262;2022-08-19T03:46:42;18.20;99.90
59469;DHT22;45277;52.768;18.262;2022-08-19T03:48:14;18.30;99.90
59469;DHT22;45277;52.768;18.262;2022-08-19T03:49:48;18.40;99.90
59469;DHT22;45277;52.768;18.262;2022-08-19T03:51:31;18.50;99.90
59469;DHT22;45277;52.768;18.262;2022-08-19T03:53:03;18.60;99.90
59469;DHT22;45277;52.768;18.262;2022-08-19T03:54:35;18.60;99.90
59469;DHT22;45277;52.768;18.262;2022-08-19T03:56:09;18.80;99.90
59469;DHT22;45277;52.768;18.262;2022-08-19T03:57:49;18.80;99.90
59469;DHT22;45277;52.768;18.262;2022-08-19T03:59:28;18.90;99.90
59469;DHT22;45277;52.768;18.262;2022-08-19T04:01:00;18.90;99.90
59469;DHT22;45277;52.768;18.262;2022-08-19T04:02:32;19.00;99.90
59469;DHT22;45277;52.768;18.262;2022-08-19T04:04:10;19.10;99.90
59469;DHT22;45277;52.768;18.262;2022-08-19T04:05:43;19.10;99.90
59469;DHT22;45277;52.768;18.262;2022-08-19T04:07:17;19.20;99.90
59469;DHT22;45277;52.768;18.262;2022-08-19T04:08:54;19.30;99.90
59469;DHT22;45277;52.768;18.262;2022-08-19T04:10:27;19.40;99.90
59469;DHT22;45277;52.768;18.262;2022-08-19T04:11:59;19.40;99.90
59469;DHT22;45277;52.768;18.262;2022-08-19T04:13:31;19.50;99.90
59469;DHT22;45277;52.768;18.262;2022-08-19T04:15:04;19.50;99.90
59469;DHT22;45277;52.768;18.262;2022-08-19T04:16:38;19.50;99.90
59469;DHT22;45277;52.768;18.262;2022-08-19T04:18:10;19.60;99.90
59469;DHT22;45277;52.768;18.262;2022-08-19T04:19:42;19.60;99.90
59469;DHT22;45277;52.768;18.262;2022-08-19T04:21:23;19.60;99.90
59469;DHT22;45277;52.768;18.262;2022-08-19T04:22:56;19.70;99.90
59469;DHT22;45277;52.768;18.262;2022-08-19T04:24:28;19.70;99.90
59469;DHT22;45277;52.768;18.262;2022-08-19T04:26:02;19.80;99.90
59469;DHT22;45277;52.768;18.262;2022-08-19T04:27:35;19.80;99.90
59469;DHT22;45277;52.768;18.262;2022-08-19T04:29:24;19.90;99.90
59469;DHT22;45277;52.768;18.262;2022-08-19T04:30:59;19.90;99.90
59469;DHT22;45277;52.768;18.262;2022-08-19T04:32:31;20.00;99.90
59469;DHT22;45277;52.768;18.262;2022-08-19T04:34:07;20.00;99.90
59469;DHT22;45277;52.768;18.262;2022-08-19T04:35:42;20.00;99.90
59469;DHT22;45277;52.768;18.262;2022-08-19T04:37:14;20.10;99.90
59469;DHT22;45277;52.768;18.262;2022-08-19T04:38:54;20.10;99.90
59469;DHT22;45277;52.768;18.262;2022-08-19T04:40:28;20.20;99.90
59469;DHT22;45277;52.768;18.262;2022-08-19T04:42:18;20.30;99.90
59469;DHT22;45277;52.768;18.262;2022-08-19T04:44:15;20.40;99.90
59469;DHT22;45277;52.768;18.262;2022-08-19T04:45:51;20.40;99.90
59469;DHT22;45277;52.768;18.262;2022-08-19T04:47:38;20.40;99.90
59469;DHT22;45277;52.768;18.262;2022-08-19T04:49:19;20.40;99.90
59469;DHT22;45277;52.768;18.262;2022-08-19T04:50:56;20.40;99.90
59469;DHT22;45277;52.768;18.262;2022-08-19T04:52:31;20.40;99.90
59469;DHT22;45277;52.768;18.262;2022-08-19T04:54:04;20.40;99.90
59469;DHT22;45277;52.768;18.262;2022-08-19T04:55:39;20.40;99.90
59469;DHT22;45277;52.768;18.262;2022-08-19T04:57:12;20.40;99.90
59469;DHT22;45277;52.768;18.262;2022-08-19T04:58:44;20.40;99.90
59469;DHT22;45277;52.768;18.262;2022-08-19T05:00:16;20.50;99.90
59469;DHT22;45277;52.768;18.262;2022-08-19T05:01:48;20.50;99.90
59469;DHT22;45277;52.768;18.262;2022-08-19T05:03:23;20.60;99.90
59469;DHT22;45277;52.768;18.262;2022-08-19T05:04:58;20.60;99.90
59469;DHT22;45277;52.768;18.262;2022-08-19T05:06:32;20.70;99.90
59469;DHT22;45277;52.768;18.262;2022-08-19T05:08:06;20.70;99.90
59469;DHT22;45277;52.768;18.262;2022-08-19T05:09:45;20.80;99.90
59469;DHT22;45277;52.768;18.262;2022-08-19T05:11:28;20.90;99.90
59469;DHT22;45277;52.768;18.262;2022-08-19T05:13:05;21.00;99.90
59469;DHT22;45277;52.768;18.262;2022-08-19T05:14:38;21.10;99.90
59469;DHT22;45277;52.768;18.262;2022-08-19T05:16:12;21.20;99.90
59469;DHT22;45277;52.768;18.262;2022-08-19T05:17:50;21.40;99.90
59469;DHT22;45277;52.768;18.262;2022-08-19T05:19:42;21.50;99.90
59469;DHT22;45277;52.768;18.262;2022-08-19T05:21:34;21.60;99.90
59469;DHT22;45277;52.768;18.262;2022-08-19T05:23:25;21.80;99.90
59469;DHT22;45277;52.768;18.262;2022-08-19T05:25:09;21.90;99.90
59469;DHT22;45277;52.768;18.262;2022-08-19T05:26:50;22.00;99.90
59469;DHT22;45277;52.768;18.262;2022-08-19T05:28:22;22.00;99.90
59469;DHT22;45277;52.768;18.262;2022-08-19T05:29:59;22.10;99.90
59469;DHT22;45277;52.768;18.262;2022-08-19T05:31:31;22.20;99.90
59469;DHT22;45277;52.768;18.262;2022-08-19T05:33:03;22.20;99.90
59469;DHT22;45277;52.768;18.262;2022-08-19T05:34:35;22.30;99.90
59469;DHT22;45277;52.768;18.262;2022-08-19T05:36:11;22.40;99.90
59469;DHT22;45277;52.768;18.262;2022-08-19T05:37:46;22.40;99.90
59469;DHT22;45277;52.768;18.262;2022-08-19T05:39:20;22.50;99.90
59469;DHT22;45277;52.768;18.262;2022-08-19T05:40:54;22.50;99.90
59469;DHT22;45277;52.768;18.262;2022-08-19T05:42:25;22.60;99.90
59469;DHT22;45277;52.768;18.262;2022-08-19T05:44:02;22.60;99.90
59469;DHT22;45277;52.768;18.262;2022-08-19T05:45:47;22.70;99.90
59469;DHT22;45277;52.768;18.262;2022-08-19T05:47:20;22.70;99.90
59469;DHT22;45277;52.768;18.262;2022-08-19T05:48:53;22.70;99.90
59469;DHT22;45277;52.768;18.262;2022-08-19T05:50:35;22.80;99.90
59469;DHT22;45277;52.768;18.262;2022-08-19T05:52:11;22.90;99.90
59469;DHT22;45277;52.768;18.262;2022-08-19T05:53:52;23.00;99.90
59469;DHT22;45277;52.768;18.262;2022-08-19T05:55:28;23.20;99.90
59469;DHT22;45277;52.768;18.262;2022-08-19T05:57:01;23.30;99.90
59469;DHT22;45277;52.768;18.262;2022-08-19T05:58:35;23.40;99.90
59469;DHT22;45277;52.768;18.262;2022-08-19T06:00:13;23.50;99.90
59469;DHT22;45277;52.768;18.262;2022-08-19T06:01:46;23.60;99.90
59469;DHT22;45277;52.768;18.262;2022-08-19T06:03:34;23.70;99.90
59469;DHT22;45277;52.768;18.262;2022-08-19T06:05:07;23.90;99.90
59469;DHT22;45277;52.768;18.262;2022-08-19T06:06:40;24.00;99.90
59469;DHT22;45277;52.768;18.262;2022-08-19T06:08:14;24.00;99.90
59469;DHT22;45277;52.768;18.262;2022-08-19T06:09:45;24.10;99.90
59469;DHT22;45277;52.768;18.262;2022-08-19T06:11:42;24.20;99.90
59469;DHT22;45277;52.768;18.262;2022-08-19T06:13:14;24.40;99.90
59469;DHT22;45277;52.768;18.262;2022-08-19T06:14:47;24.40;99.90
59469;DHT22;45277;52.768;18.262;2022-08-19T06:16:27;24.50;99.90
59469;DHT22;45277;52.768;18.262;2022-08-19T06:18:00;24.60;99.90
59469;DHT22;45277;52.768;18.262;2022-08-19T06:19:32;24.80;99.90
59469;DHT22;45277;52.768;18.262;2022-08-19T06:21:06;25.00;99.90
59469;DHT22;45277;52.768;18.262;2022-08-19T06:22:39;25.10;99.90
59469;DHT22;45277;52.768;18.262;2022-08-19T06:24:13;25.10;99.90
59469;DHT22;45277;52.768;18.262;2022-08-19T06:25:45;25.10;99.90
59469;DHT22;45277;52.768;18.262;2022-08-19T06:27:16;25.20;99.90
59469;DHT22;45277;52.768;18.262;2022-08-19T06:28:48;25.40;99.90
59469;DHT22;45277;52.768;18.262;2022-08-19T06:30:20;25.50;99.90
59469;DHT22;45277;52.768;18.262;2022-08-19T06:31:55;25.60;99.90
59469;DHT22;45277;52.768;18.262;2022-08-19T06:33:27;25.60;99.90
59469;DHT22;45277;52.768;18.262;2022-08-19T06:35:00;25.70;99.90
59469;DHT22;45277;52.768;18.262;2022-08-19T06:36:36;25.70;99.90
59469;DHT22;45277;52.768;18.262;2022-08-19T06:38:08;25.80;99.90
59469;DHT22;45277;52.768;18.262;2022-08-19T06:39:42;26.00;99.90
59469;DHT22;45277;52.768;18.262;2022-08-19T06:41:20;26.00;99.90
59469;DHT22;45277;52.768;18.262;2022-08-19T06:42:51;26.10;99.90
59469;DHT22;45277;52.768;18.262;2022-08-19T06:44:28;26.20;99.90
59469;DHT22;45277;52.768;18.262;2022-08-19T06:46:12;26.30;99.90
59469;DHT22;45277;52.768;18.262;2022-08-19T06:47:44;26.30;99.90
59469;DHT22;45277;52.768;18.262;2022-08-19T06:49:19;26.40;99.90
59469;DHT22;45277;52.768;18.262;2022-08-19T06:50:58;26.40;99.90
59469;DHT22;45277;52.768;18.262;2022-08-19T06:52:33;26.60;99.90
59469;DHT22;45277;52.768;18.262;2022-08-19T06:54:08;26.50;99.90
59469;DHT22;45277;52.768;18.262;2022-08-19T06:55:47;26.60;99.90
59469;DHT22;45277;52.768;18.262;2022-08-19T06:57:27;26.60;99.90
59469;DHT22;45277;52.768;18.262;2022-08-19T06:59:20;26.70;99.90
59469;DHT22;45277;52.768;18.262;2022-08-19T07:00:53;26.80;99.90
59469;DHT22;45277;52.768;18.262;2022-08-19T07:02:24;26.90;99.90
59469;DHT22;45277;52.768;18.262;2022-08-19T07:03:58;26.90;99.80
59469;DHT22;45277;52.768;18.262;2022-08-19T07:05:32;26.90;99.90
59469;DHT22;45277;52.768;18.262;2022-08-19T07:07:12;26.90;99.90
59469;DHT22;45277;52.768;18.262;2022-08-19T07:08:47;26.90;98.50
59469;DHT22;45277;52.768;18.262;2022-08-19T07:10:19;26.90;97.10
59469;DHT22;45277;52.768;18.262;2022-08-19T07:11:52;26.90;98.30
59469;DHT22;45277;52.768;18.262;2022-08-19T07:13:28;26.90;98.30
59469;DHT22;45277;52.768;18.262;2022-08-19T07:15:00;26.90;99.80
59469;DHT22;45277;52.768;18.262;2022-08-19T07:16:32;26.90;99.80
59469;DHT22;45277;52.768;18.262;2022-08-19T07:18:04;26.90;99.90
59469;DHT22;45277;52.768;18.262;2022-08-19T07:19:37;27.00;99.90
59469;DHT22;45277;52.768;18.262;2022-08-19T07:21:18;27.10;97.60
59469;DHT22;45277;52.768;18.262;2022-08-19T07:22:56;27.20;99.20
59469;DHT22;45277;52.768;18.262;2022-08-19T07:24:28;27.40;96.90
59469;DHT22;45277;52.768;18.262;2022-08-19T07:26:15;27.40;96.00
59469;DHT22;45277;52.768;18.262;2022-08-19T07:27:51;27.50;95.60
59469;DHT22;45277;52.768;18.262;2022-08-19T07:29:24;27.60;94.90
59469;DHT22;45277;52.768;18.262;2022-08-19T07:30:57;27.60;95.90
59469;DHT22;45277;52.768;18.262;2022-08-19T07:32:29;27.50;94.20
59469;DHT22;45277;52.768;18.262;2022-08-19T07:34:05;27.50;94.50
59469;DHT22;45277;52.768;18.262;2022-08-19T07:35:40;27.40;96.80
59469;DHT22;45277;52.768;18.262;2022-08-19T07:37:13;27.50;95.90
59469;DHT22;45277;52.768;18.262;2022-08-19T07:38:47;27.60;94.90
59469;DHT22;45277;52.768;18.262;2022-08-19T07:40:21;27.60;95.50
59469;DHT22;45277;52.768;18.262;2022-08-19T07:41:55;27.60;93.90
59469;DHT22;45277;52.768;18.262;2022-08-19T07:43:40;27.50;94.50
59469;DHT22;45277;52.768;18.262;2022-08-19T07:45:12;27.50;93.90
59469;DHT22;45277;52.768;18.262;2022-08-19T07:46:48;27.60;93.30
59469;DHT22;45277;52.768;18.262;2022-08-19T07:48:24;27.60;93.20
59469;DHT22;45277;52.768;18.262;2022-08-19T07:49:58;27.60;92.00
59469;DHT22;45277;52.768;18.262;2022-08-19T07:51:30;27.70;94.50
59469;DHT22;45277;52.768;18.262;2022-08-19T07:53:03;27.80;92.80
59469;DHT22;45277;52.768;18.262;2022-08-19T07:54:36;27.90;90.70
59469;DHT22;45277;52.768;18.262;2022-08-19T07:56:08;27.90;83.40
59469;DHT22;45277;52.768;18.262;2022-08-19T07:57:40;28.00;84.70
59469;DHT22;45277;52.768;18.262;2022-08-19T07:59:12;28.20;78.50
59469;DHT22;45277;52.768;18.262;2022-08-19T08:00:46;28.30;79.00
59469;DHT22;45277;52.768;18.262;2022-08-19T08:02:23;28.30;73.20
59469;DHT22;45277;52.768;18.262;2022-08-19T08:03:57;28.40;72.60
59469;DHT22;45277;52.768;18.262;2022-08-19T08:05:59;28.50;72.10
59469;DHT22;45277;52.768;18.262;2022-08-19T08:07:50;28.60;63.70
59469;DHT22;45277;52.768;18.262;2022-08-19T08:09:43;28.80;57.90
59469;DHT22;45277;52.768;18.262;2022-08-19T08:11:19;28.80;59.00
59469;DHT22;45277;52.768;18.262;2022-08-19T08:12:52;28.80;60.00
59469;DHT22;45277;52.768;18.262;2022-08-19T08:14:33;28.90;56.60
59469;DHT22;45277;52.768;18.262;2022-08-19T08:16:06;28.90;54.20
59469;DHT22;45277;52.768;18.262;2022-08-19T08:17:39;28.90;52.40
59469;DHT22;45277;52.768;18.262;2022-08-19T08:19:12;28.90;51.60
59469;DHT22;45277;52.768;18.262;2022-08-19T08:20:47;29.10;51.60
59469;DHT22;45277;52.768;18.262;2022-08-19T08:22:21;29.30;45.20
59469;DHT22;45277;52.768;18.262;2022-08-19T08:24:11;29.30;42.20
59469;DHT22;45277;52.768;18.262;2022-08-19T08:25:43;29.40;45.60
59469;DHT22;45277;52.768;18.262;2022-08-19T08:27:21;29.30;46.10
59469;DHT22;45277;52.768;18.262;2022-08-19T08:28:54;29.40;46.80
59469;DHT22;45277;52.768;18.262;2022-08-19T08:30:28;29.40;45.60
59469;DHT22;45277;52.768;18.262;2022-08-19T08:32:00;29.60;45.80
59469;DHT22;45277;52.768;18.262;2022-08-19T08:33:33;29.50;41.90
59469;DHT22;45277;52.768;18.262;2022-08-19T08:35:06;29.50;43.30
59469;DHT22;45277;52.768;18.262;2022-08-19T08:36:44;29.60;44.30
59469;DHT22;45277;52.768;18.262;2022-08-19T08:38:16;29.70;42.70
59469;DHT22;45277;52.768;18.262;2022-08-19T08:39:48;29.70;43.40
59469;DHT22;45277;52.768;18.262;2022-08-19T08:41:46;29.80;43.40
59469;DHT22;45277;52.768;18.262;2022-08-19T08:43:39;29.80;40.30
59469;DHT22;45277;52.768;18.262;2022-08-19T08:45:17;29.90;43.40
59469;DHT22;45277;52.768;18.262;2022-08-19T08:46:53;30.10;41.70
59469;DHT22;45277;52.768;18.262;2022-08-19T08:48:41;30.20;40.60
59469;DHT22;45277;52.768;18.262;2022-08-19T08:50:22;30.30;37.30
59469;DHT22;45277;52.768;18.262;2022-08-19T08:52:05;30.30;35.90
59469;DHT22;45277;52.768;18.262;2022-08-19T08:53:38;30.30;34.20
59469;DHT22;45277;52.768;18.262;2022-08-19T08:55:17;30.30;37.00
59469;DHT22;45277;52.768;18.262;2022-08-19T08:56:53;30.40;37.30
59469;DHT22;45277;52.768;18.262;2022-08-19T08:58:31;30.50;34.40
59469;DHT22;45277;52.768;18.262;2022-08-19T09:00:15;30.50;33.80
59469;DHT22;45277;52.768;18.262;2022-08-19T09:01:49;30.60;33.50
59469;DHT22;45277;52.768;18.262;2022-08-19T09:03:25;30.90;30.40
59469;DHT22;45277;52.768;18.262;2022-08-19T09:04:58;30.90;29.80
59469;DHT22;45277;52.768;18.262;2022-08-19T09:16:16;30.90;30.10
59469;DHT22;45277;52.768;18.262;2022-08-19T09:17:51;31.20;29.50
59469;DHT22;45277;52.768;18.262;2022-08-19T09:19:22;31.20;31.70
59469;DHT22;45277;52.768;18.262;2022-08-19T09:20:56;31.50;28.30
59469;DHT22;45277;52.768;18.262;2022-08-19T09:22:28;31.60;27.70
59469;DHT22;45277;52.768;18.262;2022-08-19T09:24:04;31.60;28.20
59469;DHT22;45277;52.768;18.262;2022-08-19T09:25:39;31.60;26.80
59469;DHT22;45277;52.768;18.262;2022-08-19T09:27:11;31.60;29.60
59469;DHT22;45277;52.768;18.262;2022-08-19T09:28:52;31.60;28.20
59469;DHT22;45277;52.768;18.262;2022-08-19T09:30:27;31.50;27.30
59469;DHT22;45277;52.768;18.262;2022-08-19T09:32:01;31.50;28.00
59469;DHT22;45277;52.768;18.262;2022-08-19T09:33:34;31.50;27.50
59469;DHT22;45277;52.768;18.262;2022-08-19T09:35:07;31.60;27.50
59469;DHT22;45277;52.768;18.262;2022-08-19T09:36:40;31.80;26.00
59469;DHT22;45277;52.768;18.262;2022-08-19T09:38:11;31.50;25.80
59469;DHT22;45277;52.768;18.262;2022-08-19T09:39:43;31.60;26.90
59469;DHT22;45277;52.768;18.262;2022-08-19T09:41:24;31.70;24.90
59469;DHT22;45277;52.768;18.262;2022-08-19T09:42:57;31.70;25.70
59469;DHT22;45277;52.768;18.262;2022-08-19T09:44:41;31.80;26.50
59469;DHT22;45277;52.768;18.262;2022-08-19T09:46:14;31.80;25.60
59469;DHT22;45277;52.768;18.262;2022-08-19T09:47:50;31.60;25.50
59469;DHT22;45277;52.768;18.262;2022-08-19T09:49:23;31.70;26.90
59469;DHT22;45277;52.768;18.262;2022-08-19T09:51:02;32.00;26.00
59469;DHT22;45277;52.768;18.262;2022-08-19T09:52:35;32.30;25.00
59469;DHT22;45277;52.768;18.262;2022-08-19T09:54:08;32.20;24.40
59469;DHT22;45277;52.768;18.262;2022-08-19T09:55:44;32.40;25.70
59469;DHT22;45277;52.768;18.262;2022-08-19T09:57:17;32.60;25.60
59469;DHT22;45277;52.768;18.262;2022-08-19T09:58:51;32.80;24.90
59469;DHT22;45277;52.768;18.262;2022-08-19T10:00:23;32.80;23.90
59469;DHT22;45277;52.768;18.262;2022-08-19T10:01:55;32.80;24.20
59469;DHT22;45277;52.768;18.262;2022-08-19T10:03:28;32.90;22.90
59469;DHT22;45277;52.768;18.262;2022-08-19T10:05:01;33.00;21.80
59469;DHT22;45277;52.768;18.262;2022-08-19T10:06:55;33.00;23.40